Terminal Aerodrome Forecast
Issued by NWS

Home | Current Version | Previous Version | Text Only | Print | Product List | Glossary Off
Versions: 1 2 3 4 5 6 7 8 9 10 11 12 13 14 15 16 17 18 19 20 21 22 23 24 25 26 27 28

000
FTUS43 KLOT 050117 AAA
TAFGYY
TAF AMD
KGYY 050117Z 0501/0524 VRB03KT 2SM -SN BR SCT008 OVC020
     FM050500 25008KT 3SM BR OVC008
     FM050900 25007KT 1SM BR OVC008
      TEMPO 0509/0513 1/4SM FZFG VV005
     FM051500 20006KT 2SM BR OVC008
     FM051900 19009KT 6SM BR OVC012=

USA.gov is the U.S. government's official web portal to all federal, state and local government web resources and services.